sensor_id;sensor_type;location;lat;lon;timestamp;temperature;humidity
35305;DHT22;26433;48.034;-1.764;2023-03-03T06:02:14;4.60;66.30
35305;DHT22;26433;48.034;-1.764;2023-03-03T06:07:18;4.60;66.70
35305;DHT22;26433;48.034;-1.764;2023-03-03T06:12:21;4.60;66.90
35305;DHT22;26433;48.034;-1.764;2023-03-03T06:17:26;4.60;67.00
35305;DHT22;26433;48.034;-1.764;2023-03-03T06:22:30;4.70;67.10
35305;DHT22;26433;48.034;-1.764;2023-03-03T06:27:33;4.70;67.20
35305;DHT22;26433;48.034;-1.764;2023-03-03T06:32:38;4.80;67.40
35305;DHT22;26433;48.034;-1.764;2023-03-03T06:37:42;4.70;67.60
35305;DHT22;26433;48.034;-1.764;2023-03-03T06:42:46;4.70;67.80
35305;DHT22;26433;48.034;-1.764;2023-03-03T06:47:51;4.80;67.90
35305;DHT22;26433;48.034;-1.764;2023-03-03T06:53:00;4.80;68.00
35305;DHT22;26433;48.034;-1.764;2023-03-03T06:58:08;4.90;68.10
35305;DHT22;26433;48.034;-1.764;2023-03-03T07:03:17;4.90;68.10
35305;DHT22;26433;48.034;-1.764;2023-03-03T07:08:22;4.90;68.20
35305;DHT22;26433;48.034;-1.764;2023-03-03T07:13:27;4.90;68.30
35305;DHT22;26433;48.034;-1.764;2023-03-03T07:18:37;4.90;68.40
35305;DHT22;26433;48.034;-1.764;2023-03-03T07:23:42;5.00;68.60
35305;DHT22;26433;48.034;-1.764;2023-03-03T07:28:52;5.10;68.60
35305;DHT22;26433;48.034;-1.764;2023-03-03T07:33:59;5.20;68.70
35305;DHT22;26433;48.034;-1.764;2023-03-03T07:39:18;5.30;69.20
35305;DHT22;26433;48.034;-1.764;2023-03-03T07:44:29;5.40;68.50
35305;DHT22;26433;48.034;-1.764;2023-03-03T07:49:38;5.50;68.50
35305;DHT22;26433;48.034;-1.764;2023-03-03T07:54:43;5.60;68.60
35305;DHT22;26433;48.034;-1.764;2023-03-03T07:59:50;5.60;68.60
35305;DHT22;26433;48.034;-1.764;2023-03-03T08:04:55;5.80;69.20
35305;DHT22;26433;48.034;-1.764;2023-03-03T08:10:00;5.90;68.70
35305;DHT22;26433;48.034;-1.764;2023-03-03T08:15:21;6.00;68.70
35305;DHT22;26433;48.034;-1.764;2023-03-03T08:20:52;6.20;68.70
35305;DHT22;26433;48.034;-1.764;2023-03-03T08:25:56;6.50;68.50
35305;DHT22;26433;48.034;-1.764;2023-03-03T08:31:00;6.70;68.30
35305;DHT22;26433;48.034;-1.764;2023-03-03T08:36:25;6.90;68.30
35305;DHT22;26433;48.034;-1.764;2023-03-03T08:41:28;7.00;68.10
35305;DHT22;26433;48.034;-1.764;2023-03-03T08:46:32;7.30;68.10
35305;DHT22;26433;48.034;-1.764;2023-03-03T08:51:37;7.50;67.90
35305;DHT22;26433;48.034;-1.764;2023-03-03T08:56:41;7.80;67.80
35305;DHT22;26433;48.034;-1.764;2023-03-03T09:01:45;8.00;67.60
35305;DHT22;26433;48.034;-1.764;2023-03-03T09:06:50;8.30;67.60
35305;DHT22;26433;48.034;-1.764;2023-03-03T09:11:57;8.50;67.40
35305;DHT22;26433;48.034;-1.764;2023-03-03T09:17:01;8.70;67.40
35305;DHT22;26433;48.034;-1.764;2023-03-03T09:22:20;9.00;67.30
35305;DHT22;26433;48.034;-1.764;2023-03-03T09:27:28;9.30;67.00
35305;DHT22;26433;48.034;-1.764;2023-03-03T09:32:34;9.60;66.60
35305;DHT22;26433;48.034;-1.764;2023-03-03T09:37:41;9.80;66.30
35305;DHT22;26433;48.034;-1.764;2023-03-03T09:42:54;10.20;66.40
35305;DHT22;26433;48.034;-1.764;2023-03-03T09:54:03;11.00;64.80
35305;DHT22;26433;48.034;-1.764;2023-03-03T09:59:25;11.20;64.40
35305;DHT22;26433;48.034;-1.764;2023-03-03T10:04:43;11.10;64.40
35305;DHT22;26433;48.034;-1.764;2023-03-03T10:10:17;11.00;64.80
35305;DHT22;26433;48.034;-1.764;2023-03-03T10:15:31;10.90;65.10
35305;DHT22;26433;48.034;-1.764;2023-03-03T10:20:55;11.10;65.10
35305;DHT22;26433;48.034;-1.764;2023-03-03T10:26:11;11.30;64.90
35305;DHT22;26433;48.034;-1.764;2023-03-03T10:31:26;11.50;64.20
35305;DHT22;26433;48.034;-1.764;2023-03-03T10:36:43;11.80;63.70
35305;DHT22;26433;48.034;-1.764;2023-03-03T10:42:04;12.20;63.20
35305;DHT22;26433;48.034;-1.764;2023-03-03T10:47:27;12.70;62.40
35305;DHT22;26433;48.034;-1.764;2023-03-03T10:52:41;13.30;61.50
35305;DHT22;26433;48.034;-1.764;2023-03-03T10:57:58;13.80;60.50
35305;DHT22;26433;48.034;-1.764;2023-03-03T11:03:41;14.00;60.10
35305;DHT22;26433;48.034;-1.764;2023-03-03T11:08:52;13.90;60.30
35305;DHT22;26433;48.034;-1.764;2023-03-03T11:14:03;13.90;60.50
35305;DHT22;26433;48.034;-1.764;2023-03-03T11:19:24;14.00;60.20
35305;DHT22;26433;48.034;-1.764;2023-03-03T11:24:42;14.10;60.30
35305;DHT22;26433;48.034;-1.764;2023-03-03T11:30:03;14.90;59.20
35305;DHT22;26433;48.034;-1.764;2023-03-03T11:35:21;15.60;57.90
35305;DHT22;26433;48.034;-1.764;2023-03-03T11:40:29;16.20;56.90
35305;DHT22;26433;48.034;-1.764;2023-03-03T11:45:39;16.90;56.10
35305;DHT22;26433;48.034;-1.764;2023-03-03T11:50:50;17.40;55.20
35305;DHT22;26433;48.034;-1.764;2023-03-03T11:56:01;18.00;54.50
35305;DHT22;26433;48.034;-1.764;2023-03-03T12:01:16;18.70;53.50
35305;DHT22;26433;48.034;-1.764;2023-03-03T12:06:31;19.10;52.60
35305;DHT22;26433;48.034;-1.764;2023-03-03T12:11:44;19.00;52.70
35305;DHT22;26433;48.034;-1.764;2023-03-03T12:16:54;19.10;52.70
35305;DHT22;26433;48.034;-1.764;2023-03-03T12:22:10;18.90;52.50
35305;DHT22;26433;48.034;-1.764;2023-03-03T12:27:21;18.70;52.70
35305;DHT22;26433;48.034;-1.764;2023-03-03T12:32:40;19.00;52.50
35305;DHT22;26433;48.034;-1.764;2023-03-03T12:37:53;19.10;51.80
35305;DHT22;26433;48.034;-1.764;2023-03-03T12:43:12;19.20;51.60
35305;DHT22;26433;48.034;-1.764;2023-03-03T12:48:24;19.50;51.00
35305;DHT22;26433;48.034;-1.764;2023-03-03T12:53:43;19.70;50.40
35305;DHT22;26433;48.034;-1.764;2023-03-03T12:58:51;20.00;50.00
35305;DHT22;26433;48.034;-1.764;2023-03-03T13:04:04;20.20;49.40
35305;DHT22;26433;48.034;-1.764;2023-03-03T13:09:20;20.40;48.90
35305;DHT22;26433;48.034;-1.764;2023-03-03T13:14:36;20.40;48.80
35305;DHT22;26433;48.034;-1.764;2023-03-03T13:19:45;20.40;48.60
35305;DHT22;26433;48.034;-1.764;2023-03-03T13:24:58;20.40;48.60
35305;DHT22;26433;48.034;-1.764;2023-03-03T13:30:14;20.60;47.90
35305;DHT22;26433;48.034;-1.764;2023-03-03T13:35:29;20.90;47.30
35305;DHT22;26433;48.034;-1.764;2023-03-03T13:40:40;21.20;47.00
35305;DHT22;26433;48.034;-1.764;2023-03-03T13:45:53;21.50;46.50
35305;DHT22;26433;48.034;-1.764;2023-03-03T13:51:07;21.70;45.80
35305;DHT22;26433;48.034;-1.764;2023-03-03T13:56:23;21.70;45.70
35305;DHT22;26433;48.034;-1.764;2023-03-03T14:01:44;21.60;45.60
35305;DHT22;26433;48.034;-1.764;2023-03-03T14:06:56;21.40;45.50
35305;DHT22;26433;48.034;-1.764;2023-03-03T14:12:09;21.10;45.70
35305;DHT22;26433;48.034;-1.764;2023-03-03T14:17:25;21.20;45.50
35305;DHT22;26433;48.034;-1.764;2023-03-03T14:22:40;21.20;45.20
35305;DHT22;26433;48.034;-1.764;2023-03-03T14:28:01;21.20;45.00
35305;DHT22;26433;48.034;-1.764;2023-03-03T14:33:18;21.00;44.70
35305;DHT22;26433;48.034;-1.764;2023-03-03T14:38:36;21.00;44.90
35305;DHT22;26433;48.034;-1.764;2023-03-03T14:43:41;21.00;44.70
35305;DHT22;26433;48.034;-1.764;2023-03-03T14:48:49;21.10;44.70
35305;DHT22;26433;48.034;-1.764;2023-03-03T14:53:56;21.10;44.60
35305;DHT22;26433;48.034;-1.764;2023-03-03T14:59:16;20.80;44.60
35305;DHT22;26433;48.034;-1.764;2023-03-03T15:04:25;20.60;44.20
35305;DHT22;26433;48.034;-1.764;2023-03-03T15:09:33;20.40;44.60
35305;DHT22;26433;48.034;-1.764;2023-03-03T15:14:45;20.30;44.50
35305;DHT22;26433;48.034;-1.764;2023-03-03T15:19:58;20.10;44.50
35305;DHT22;26433;48.034;-1.764;2023-03-03T15:25:17;19.70;44.60
35305;DHT22;26433;48.034;-1.764;2023-03-03T15:30:29;19.10;45.10
35305;DHT22;26433;48.034;-1.764;2023-03-03T15:35:45;18.60;45.40
35305;DHT22;26433;48.034;-1.764;2023-03-03T15:40:54;18.30;45.70
35305;DHT22;26433;48.034;-1.764;2023-03-03T15:46:09;17.90;45.70
35305;DHT22;26433;48.034;-1.764;2023-03-03T15:51:18;17.40;46.00
35305;DHT22;26433;48.034;-1.764;2023-03-03T15:56:30;17.10;46.20
35305;DHT22;26433;48.034;-1.764;2023-03-03T16:01:40;16.80;46.40
35305;DHT22;26433;48.034;-1.764;2023-03-03T16:06:55;16.40;47.00
35305;DHT22;26433;48.034;-1.764;2023-03-03T16:12:03;16.10;46.60
35305;DHT22;26433;48.034;-1.764;2023-03-03T16:17:20;15.80;46.80
35305;DHT22;26433;48.034;-1.764;2023-03-03T16:22:36;15.50;47.00
35305;DHT22;26433;48.034;-1.764;2023-03-03T16:27:49;15.10;47.10
35305;DHT22;26433;48.034;-1.764;2023-03-03T16:33:07;14.90;47.30
35305;DHT22;26433;48.034;-1.764;2023-03-03T16:38:17;14.60;47.30
35305;DHT22;26433;48.034;-1.764;2023-03-03T16:43:31;14.40;47.50
35305;DHT22;26433;48.034;-1.764;2023-03-03T16:48:41;14.20;47.40
35305;DHT22;26433;48.034;-1.764;2023-03-03T16:53:53;14.00;47.50
35305;DHT22;26433;48.034;-1.764;2023-03-03T16:59:18;13.90;47.50
35305;DHT22;26433;48.034;-1.764;2023-03-03T17:04:34;13.80;47.60
35305;DHT22;26433;48.034;-1.764;2023-03-03T17:09:57;13.70;48.40
35305;DHT22;26433;48.034;-1.764;2023-03-03T17:15:14;13.50;48.10
35305;DHT22;26433;48.034;-1.764;2023-03-03T17:20:29;13.30;48.40
35305;DHT22;26433;48.034;-1.764;2023-03-03T17:25:39;13.10;48.70
35305;DHT22;26433;48.034;-1.764;2023-03-03T17:30:55;12.90;48.90
35305;DHT22;26433;48.034;-1.764;2023-03-03T17:36:14;12.70;49.10
35305;DHT22;26433;48.034;-1.764;2023-03-03T17:41:24;12.50;49.60
35305;DHT22;26433;48.034;-1.764;2023-03-03T17:46:33;12.30;50.10
35305;DHT22;26433;48.034;-1.764;2023-03-03T17:52:08;12.10;50.50
35305;DHT22;26433;48.034;-1.764;2023-03-03T17:57:27;11.90;50.90
35305;DHT22;26433;48.034;-1.764;2023-03-03T18:02:54;11.70;51.40
35305;DHT22;26433;48.034;-1.764;2023-03-03T18:19:30;11.10;52.90
35305;DHT22;26433;48.034;-1.764;2023-03-03T18:24:53;10.90;53.00
35305;DHT22;26433;48.034;-1.764;2023-03-03T18:30:20;10.80;53.30
35305;DHT22;26433;48.034;-1.764;2023-03-03T18:35:30;10.70;53.40
35305;DHT22;26433;48.034;-1.764;2023-03-03T18:40:49;10.60;53.60
35305;DHT22;26433;48.034;-1.764;2023-03-03T18:45:53;10.50;53.70
35305;DHT22;26433;48.034;-1.764;2023-03-03T18:50:59;10.40;53.80
35305;DHT22;26433;48.034;-1.764;2023-03-03T18:56:08;10.30;54.00
35305;DHT22;26433;48.034;-1.764;2023-03-03T19:07:12;10.10;54.50
35305;DHT22;26433;48.034;-1.764;2023-03-03T19:12:17;9.90;54.90
35305;DHT22;26433;48.034;-1.764;2023-03-03T19:17:47;9.80;55.00
35305;DHT22;26433;48.034;-1.764;2023-03-03T19:23:01;9.70;55.30
35305;DHT22;26433;48.034;-1.764;2023-03-03T19:28:26;9.60;55.40
35305;DHT22;26433;48.034;-1.764;2023-03-03T19:33:41;9.50;55.60
35305;DHT22;26433;48.034;-1.764;2023-03-03T19:39:02;9.40;55.60
35305;DHT22;26433;48.034;-1.764;2023-03-03T19:44:20;9.30;55.80
35305;DHT22;26433;48.034;-1.764;2023-03-03T19:49:42;9.20;56.00
35305;DHT22;26433;48.034;-1.764;2023-03-03T19:55:16;9.20;56.20
35305;DHT22;26433;48.034;-1.764;2023-03-03T20:00:26;9.10;56.50
35305;DHT22;26433;48.034;-1.764;2023-03-03T20:05:36;9.00;56.60
35305;DHT22;26433;48.034;-1.764;2023-03-03T20:10:46;9.00;56.80
35305;DHT22;26433;48.034;-1.764;2023-03-03T20:15:58;8.90;56.80
35305;DHT22;26433;48.034;-1.764;2023-03-03T20:21:10;8.90;57.10
35305;DHT22;26433;48.034;-1.764;2023-03-03T20:26:22;8.80;57.20
35305;DHT22;26433;48.034;-1.764;2023-03-03T20:31:34;8.80;57.40
35305;DHT22;26433;48.034;-1.764;2023-03-03T20:36:50;8.70;57.40
35305;DHT22;26433;48.034;-1.764;2023-03-03T20:42:02;8.70;57.40
35305;DHT22;26433;48.034;-1.764;2023-03-03T20:47:15;8.70;57.50
35305;DHT22;26433;48.034;-1.764;2023-03-03T20:52:32;8.70;57.60
35305;DHT22;26433;48.034;-1.764;2023-03-03T20:57:47;8.70;57.70
35305;DHT22;26433;48.034;-1.764;2023-03-03T21:03:00;8.60;57.70
35305;DHT22;26433;48.034;-1.764;2023-03-03T21:08:05;8.60;57.90
35305;DHT22;26433;48.034;-1.764;2023-03-03T21:13:34;8.60;57.90
35305;DHT22;26433;48.034;-1.764;2023-03-03T21:18:40;8.50;58.10
35305;DHT22;26433;48.034;-1.764;2023-03-03T21:23:47;8.30;58.30
35305;DHT22;26433;48.034;-1.764;2023-03-03T21:29:02;8.30;58.90
35305;DHT22;26433;48.034;-1.764;2023-03-03T21:34:17;8.20;58.60
35305;DHT22;26433;48.034;-1.764;2023-03-03T21:39:26;8.10;58.70
35305;DHT22;26433;48.034;-1.764;2023-03-03T21:44:34;8.10;58.80
35305;DHT22;26433;48.034;-1.764;2023-03-03T21:49:40;8.00;58.90
35305;DHT22;26433;48.034;-1.764;2023-03-03T21:54:45;7.90;59.00
35305;DHT22;26433;48.034;-1.764;2023-03-03T21:59:50;7.90;59.20
35305;DHT22;26433;48.034;-1.764;2023-03-03T22:04:54;7.70;59.40
35305;DHT22;26433;48.034;-1.764;2023-03-03T22:09:58;7.60;59.60
35305;DHT22;26433;48.034;-1.764;2023-03-03T22:15:03;7.50;59.70
35305;DHT22;26433;48.034;-1.764;2023-03-03T22:20:08;7.40;59.90
35305;DHT22;26433;48.034;-1.764;2023-03-03T22:25:12;7.40;60.00
35305;DHT22;26433;48.034;-1.764;2023-03-03T22:30:17;7.30;60.10
35305;DHT22;26433;48.034;-1.764;2023-03-03T22:35:22;7.20;60.20
35305;DHT22;26433;48.034;-1.764;2023-03-03T22:40:26;7.20;60.30
35305;DHT22;26433;48.034;-1.764;2023-03-03T22:45:31;7.00;60.40
35305;DHT22;26433;48.034;-1.764;2023-03-03T22:50:34;6.90;60.70
35305;DHT22;26433;48.034;-1.764;2023-03-03T22:55:40;6.80;60.80
35305;DHT22;26433;48.034;-1.764;2023-03-03T23:00:46;6.70;60.90
35305;DHT22;26433;48.034;-1.764;2023-03-03T23:05:50;6.70;61.00
35305;DHT22;26433;48.034;-1.764;2023-03-03T23:10:53;6.70;61.00
35305;DHT22;26433;48.034;-1.764;2023-03-03T23:15:58;6.60;61.00
35305;DHT22;26433;48.034;-1.764;2023-03-03T23:21:04;6.60;61.10
35305;DHT22;26433;48.034;-1.764;2023-03-03T23:26:07;6.50;61.20
